sensor_id;sensor_type;location;lat;lon;timestamp;P1;durP1;ratioP1;P2;durP2;ratioP2
62554;SDS011;48610;52.144;8.624;2023-12-20T00:00:08;27.25;;;7.63;;
62554;SDS011;48610;52.144;8.624;2023-12-20T00:03:09;13.32;;;5.75;;
62554;SDS011;48610;52.144;8.624;2023-12-20T00:06:10;20.02;;;6.93;;
62554;SDS011;48610;52.144;8.624;2023-12-20T00:09:10;11.10;;;5.30;;
62554;SDS011;48610;52.144;8.624;2023-12-20T00:12:11;17.33;;;5.40;;
62554;SDS011;48610;52.144;8.624;2023-12-20T00:15:12;15.13;;;5.97;;
62554;SDS011;48610;52.144;8.624;2023-12-20T00:18:12;12.60;;;5.80;;
62554;SDS011;48610;52.144;8.624;2023-12-20T00:21:13;17.95;;;6.93;;
62554;SDS011;48610;52.144;8.624;2023-12-20T00:24:14;17.70;;;6.63;;
62554;SDS011;48610;52.144;8.624;2023-12-20T00:27:14;17.65;;;5.53;;
62554;SDS011;48610;52.144;8.624;2023-12-20T00:30:15;20.50;;;6.45;;
62554;SDS011;48610;52.144;8.624;2023-12-20T00:33:16;13.30;;;5.20;;
62554;SDS011;48610;52.144;8.624;2023-12-20T00:36:17;14.65;;;6.00;;
62554;SDS011;48610;52.144;8.624;2023-12-20T00:39:18;14.73;;;4.80;;
62554;SDS011;48610;52.144;8.624;2023-12-20T00:42:18;30.15;;;6.13;;
62554;SDS011;48610;52.144;8.624;2023-12-20T00:45:19;16.52;;;6.18;;
62554;SDS011;48610;52.144;8.624;2023-12-20T00:48:19;20.13;;;6.18;;
62554;SDS011;48610;52.144;8.624;2023-12-20T00:51:20;19.50;;;5.80;;
62554;SDS011;48610;52.144;8.624;2023-12-20T00:54:20;16.92;;;5.90;;
62554;SDS011;48610;52.144;8.624;2023-12-20T00:57:21;17.23;;;5.00;;
62554;SDS011;48610;52.144;8.624;2023-12-20T01:00:21;11.07;;;4.15;;
62554;SDS011;48610;52.144;8.624;2023-12-20T01:03:22;23.30;;;4.70;;
62554;SDS011;48610;52.144;8.624;2023-12-20T01:06:23;17.90;;;4.20;;
62554;SDS011;48610;52.144;8.624;2023-12-20T01:09:24;11.18;;;3.65;;
62554;SDS011;48610;52.144;8.624;2023-12-20T01:12:26;9.93;;;3.75;;
62554;SDS011;48610;52.144;8.624;2023-12-20T01:15:27;6.05;;;2.85;;
62554;SDS011;48610;52.144;8.624;2023-12-20T01:18:27;15.32;;;4.03;;
62554;SDS011;48610;52.144;8.624;2023-12-20T01:21:28;24.23;;;4.18;;
62554;SDS011;48610;52.144;8.624;2023-12-20T01:24:28;7.05;;;3.20;;
62554;SDS011;48610;52.144;8.624;2023-12-20T01:27:29;16.23;;;4.45;;
62554;SDS011;48610;52.144;8.624;2023-12-20T01:30:31;14.25;;;4.30;;
62554;SDS011;48610;52.144;8.624;2023-12-20T01:33:31;13.82;;;3.70;;
62554;SDS011;48610;52.144;8.624;2023-12-20T01:36:32;16.25;;;3.67;;
62554;SDS011;48610;52.144;8.624;2023-12-20T01:39:32;18.88;;;4.07;;
62554;SDS011;48610;52.144;8.624;2023-12-20T01:42:33;29.85;;;4.10;;
62554;SDS011;48610;52.144;8.624;2023-12-20T01:45:34;12.10;;;3.33;;
62554;SDS011;48610;52.144;8.624;2023-12-20T01:48:35;17.33;;;3.08;;
62554;SDS011;48610;52.144;8.624;2023-12-20T01:51:35;14.15;;;3.40;;
62554;SDS011;48610;52.144;8.624;2023-12-20T01:54:37;15.90;;;3.38;;
62554;SDS011;48610;52.144;8.624;2023-12-20T01:57:39;5.20;;;2.78;;
62554;SDS011;48610;52.144;8.624;2023-12-20T02:00:44;12.50;;;2.95;;
62554;SDS011;48610;52.144;8.624;2023-12-20T02:03:45;6.40;;;2.40;;
62554;SDS011;48610;52.144;8.624;2023-12-20T02:06:46;9.00;;;2.88;;
62554;SDS011;48610;52.144;8.624;2023-12-20T02:09:48;16.35;;;3.08;;
62554;SDS011;48610;52.144;8.624;2023-12-20T02:12:48;3.45;;;2.40;;
62554;SDS011;48610;52.144;8.624;2023-12-20T02:15:49;12.07;;;2.97;;
62554;SDS011;48610;52.144;8.624;2023-12-20T02:18:50;17.50;;;2.78;;
62554;SDS011;48610;52.144;8.624;2023-12-20T02:21:50;5.18;;;3.17;;
62554;SDS011;48610;52.144;8.624;2023-12-20T02:25:06;13.55;;;2.70;;
62554;SDS011;48610;52.144;8.624;2023-12-20T02:28:07;8.00;;;2.72;;
62554;SDS011;48610;52.144;8.624;2023-12-20T02:31:08;15.20;;;3.40;;
62554;SDS011;48610;52.144;8.624;2023-12-20T02:34:08;27.88;;;3.40;;
62554;SDS011;48610;52.144;8.624;2023-12-20T02:37:09;7.85;;;3.83;;
62554;SDS011;48610;52.144;8.624;2023-12-20T02:40:09;9.52;;;4.10;;
62554;SDS011;48610;52.144;8.624;2023-12-20T02:43:10;15.27;;;3.25;;
62554;SDS011;48610;52.144;8.624;2023-12-20T02:46:11;13.65;;;3.22;;
62554;SDS011;48610;52.144;8.624;2023-12-20T02:49:14;12.15;;;3.17;;
62554;SDS011;48610;52.144;8.624;2023-12-20T02:52:14;7.95;;;3.30;;
62554;SDS011;48610;52.144;8.624;2023-12-20T02:55:15;13.95;;;3.72;;
62554;SDS011;48610;52.144;8.624;2023-12-20T02:58:16;17.08;;;4.63;;
62554;SDS011;48610;52.144;8.624;2023-12-20T03:01:17;23.50;;;4.95;;
62554;SDS011;48610;52.144;8.624;2023-12-20T03:04:18;16.92;;;4.00;;
62554;SDS011;48610;52.144;8.624;2023-12-20T03:07:18;8.85;;;3.38;;
62554;SDS011;48610;52.144;8.624;2023-12-20T03:10:19;22.73;;;4.15;;
62554;SDS011;48610;52.144;8.624;2023-12-20T03:13:19;19.30;;;4.05;;
62554;SDS011;48610;52.144;8.624;2023-12-20T03:16:20;18.05;;;3.92;;
62554;SDS011;48610;52.144;8.624;2023-12-20T03:19:21;19.08;;;4.47;;
62554;SDS011;48610;52.144;8.624;2023-12-20T03:22:22;20.45;;;4.28;;
62554;SDS011;48610;52.144;8.624;2023-12-20T03:25:22;13.32;;;4.70;;
62554;SDS011;48610;52.144;8.624;2023-12-20T03:28:23;17.98;;;5.88;;
62554;SDS011;48610;52.144;8.624;2023-12-20T03:31:23;16.88;;;4.60;;
62554;SDS011;48610;52.144;8.624;2023-12-20T03:34:24;18.30;;;4.70;;
62554;SDS011;48610;52.144;8.624;2023-12-20T03:37:25;24.75;;;5.47;;
62554;SDS011;48610;52.144;8.624;2023-12-20T03:40:25;24.80;;;5.00;;
62554;SDS011;48610;52.144;8.624;2023-12-20T03:43:26;12.90;;;4.55;;
62554;SDS011;48610;52.144;8.624;2023-12-20T03:46:27;24.48;;;6.03;;
62554;SDS011;48610;52.144;8.624;2023-12-20T03:49:27;16.95;;;4.95;;
62554;SDS011;48610;52.144;8.624;2023-12-20T03:52:28;22.45;;;5.68;;
62554;SDS011;48610;52.144;8.624;2023-12-20T03:55:28;18.85;;;6.82;;
62554;SDS011;48610;52.144;8.624;2023-12-20T03:58:29;22.88;;;6.35;;
62554;SDS011;48610;52.144;8.624;2023-12-20T04:01:29;16.88;;;5.72;;
62554;SDS011;48610;52.144;8.624;2023-12-20T04:04:30;27.88;;;7.68;;
62554;SDS011;48610;52.144;8.624;2023-12-20T04:07:31;40.28;;;11.90;;
62554;SDS011;48610;52.144;8.624;2023-12-20T04:10:31;22.20;;;6.97;;
62554;SDS011;48610;52.144;8.624;2023-12-20T04:13:32;22.35;;;7.55;;
62554;SDS011;48610;52.144;8.624;2023-12-20T04:16:33;28.45;;;9.38;;
62554;SDS011;48610;52.144;8.624;2023-12-20T04:19:33;30.73;;;11.88;;
62554;SDS011;48610;52.144;8.624;2023-12-20T04:22:34;24.90;;;7.15;;
62554;SDS011;48610;52.144;8.624;2023-12-20T04:25:35;14.52;;;5.13;;
62554;SDS011;48610;52.144;8.624;2023-12-20T04:28:35;14.73;;;5.85;;
62554;SDS011;48610;52.144;8.624;2023-12-20T04:31:36;23.35;;;8.38;;
62554;SDS011;48610;52.144;8.624;2023-12-20T04:34:37;28.75;;;6.72;;
62554;SDS011;48610;52.144;8.624;2023-12-20T04:37:37;22.08;;;5.88;;
62554;SDS011;48610;52.144;8.624;2023-12-20T04:40:38;30.17;;;6.65;;
62554;SDS011;48610;52.144;8.624;2023-12-20T04:43:41;22.60;;;6.55;;
62554;SDS011;48610;52.144;8.624;2023-12-20T04:46:41;27.27;;;6.75;;
62554;SDS011;48610;52.144;8.624;2023-12-20T04:49:42;16.05;;;5.72;;
62554;SDS011;48610;52.144;8.624;2023-12-20T04:52:43;31.30;;;5.57;;
62554;SDS011;48610;52.144;8.624;2023-12-20T04:55:43;16.65;;;5.45;;
62554;SDS011;48610;52.144;8.624;2023-12-20T04:58:44;26.55;;;5.95;;
62554;SDS011;48610;52.144;8.624;2023-12-20T05:01:45;21.00;;;6.00;;
62554;SDS011;48610;52.144;8.624;2023-12-20T05:04:45;13.65;;;4.18;;
62554;SDS011;48610;52.144;8.624;2023-12-20T05:07:46;18.38;;;5.70;;
62554;SDS011;48610;52.144;8.624;2023-12-20T05:10:47;16.23;;;5.90;;
62554;SDS011;48610;52.144;8.624;2023-12-20T05:13:48;32.22;;;6.35;;
62554;SDS011;48610;52.144;8.624;2023-12-20T05:16:48;16.63;;;4.88;;
62554;SDS011;48610;52.144;8.624;2023-12-20T05:19:49;25.30;;;5.53;;
62554;SDS011;48610;52.144;8.624;2023-12-20T05:22:49;18.98;;;5.75;;
62554;SDS011;48610;52.144;8.624;2023-12-20T05:25:50;26.52;;;4.95;;
62554;SDS011;48610;52.144;8.624;2023-12-20T05:28:51;20.83;;;6.18;;
62554;SDS011;48610;52.144;8.624;2023-12-20T05:31:51;21.02;;;5.53;;
62554;SDS011;48610;52.144;8.624;2023-12-20T05:34:52;34.55;;;6.22;;
62554;SDS011;48610;52.144;8.624;2023-12-20T05:37:52;21.00;;;5.43;;
62554;SDS011;48610;52.144;8.624;2023-12-20T05:40:53;24.38;;;5.75;;
62554;SDS011;48610;52.144;8.624;2023-12-20T05:43:54;22.00;;;5.68;;
62554;SDS011;48610;52.144;8.624;2023-12-20T05:46:54;16.63;;;5.15;;
62554;SDS011;48610;52.144;8.624;2023-12-20T05:49:55;14.05;;;5.22;;
62554;SDS011;48610;52.144;8.624;2023-12-20T05:52:56;27.60;;;6.20;;
62554;SDS011;48610;52.144;8.624;2023-12-20T05:55:56;23.98;;;5.25;;
62554;SDS011;48610;52.144;8.624;2023-12-20T05:58:57;26.23;;;6.60;;
62554;SDS011;48610;52.144;8.624;2023-12-20T06:01:58;20.13;;;5.78;;
62554;SDS011;48610;52.144;8.624;2023-12-20T06:04:59;22.95;;;5.32;;
62554;SDS011;48610;52.144;8.624;2023-12-20T06:08:00;19.98;;;6.03;;
62554;SDS011;48610;52.144;8.624;2023-12-20T06:11:03;23.65;;;5.40;;
62554;SDS011;48610;52.144;8.624;2023-12-20T06:14:03;19.05;;;5.03;;
62554;SDS011;48610;52.144;8.624;2023-12-20T06:17:04;18.38;;;5.80;;
62554;SDS011;48610;52.144;8.624;2023-12-20T06:20:06;30.08;;;5.43;;
62554;SDS011;48610;52.144;8.624;2023-12-20T06:23:07;17.27;;;5.32;;
62554;SDS011;48610;52.144;8.624;2023-12-20T06:26:08;13.13;;;4.65;;
62554;SDS011;48610;52.144;8.624;2023-12-20T06:29:09;18.20;;;5.65;;
62554;SDS011;48610;52.144;8.624;2023-12-20T06:32:09;22.60;;;5.57;;
62554;SDS011;48610;52.144;8.624;2023-12-20T06:35:10;28.60;;;5.35;;
62554;SDS011;48610;52.144;8.624;2023-12-20T06:38:11;21.17;;;6.38;;
62554;SDS011;48610;52.144;8.624;2023-12-20T06:41:13;21.88;;;6.47;;
62554;SDS011;48610;52.144;8.624;2023-12-20T06:44:14;38.65;;;6.32;;
62554;SDS011;48610;52.144;8.624;2023-12-20T06:47:15;25.70;;;6.20;;
62554;SDS011;48610;52.144;8.624;2023-12-20T06:50:15;11.93;;;5.40;;
62554;SDS011;48610;52.144;8.624;2023-12-20T06:53:16;20.75;;;5.57;;
62554;SDS011;48610;52.144;8.624;2023-12-20T06:56:17;29.90;;;5.63;;
62554;SDS011;48610;52.144;8.624;2023-12-20T06:59:17;28.63;;;6.13;;
62554;SDS011;48610;52.144;8.624;2023-12-20T07:02:18;19.27;;;6.80;;
62554;SDS011;48610;52.144;8.624;2023-12-20T07:05:19;26.60;;;7.05;;
62554;SDS011;48610;52.144;8.624;2023-12-20T07:08:19;24.38;;;5.68;;
62554;SDS011;48610;52.144;8.624;2023-12-20T07:11:20;21.10;;;5.85;;
62554;SDS011;48610;52.144;8.624;2023-12-20T07:14:21;26.63;;;6.75;;
62554;SDS011;48610;52.144;8.624;2023-12-20T07:17:22;24.13;;;5.93;;
62554;SDS011;48610;52.144;8.624;2023-12-20T07:20:22;26.75;;;6.07;;
62554;SDS011;48610;52.144;8.624;2023-12-20T07:23:23;21.00;;;6.30;;
62554;SDS011;48610;52.144;8.624;2023-12-20T07:26:25;23.98;;;5.95;;
62554;SDS011;48610;52.144;8.624;2023-12-20T07:29:26;26.05;;;5.70;;
62554;SDS011;48610;52.144;8.624;2023-12-20T07:32:27;11.90;;;5.03;;
62554;SDS011;48610;52.144;8.624;2023-12-20T07:35:27;23.45;;;6.43;;
62554;SDS011;48610;52.144;8.624;2023-12-20T07:38:28;28.27;;;5.32;;
62554;SDS011;48610;52.144;8.624;2023-12-20T07:41:28;16.98;;;5.90;;
62554;SDS011;48610;52.144;8.624;2023-12-20T07:44:29;22.55;;;5.93;;
62554;SDS011;48610;52.144;8.624;2023-12-20T07:47:29;26.00;;;5.35;;
62554;SDS011;48610;52.144;8.624;2023-12-20T07:50:30;16.00;;;4.85;;
62554;SDS011;48610;52.144;8.624;2023-12-20T07:53:31;47.25;;;6.10;;
62554;SDS011;48610;52.144;8.624;2023-12-20T07:56:31;25.60;;;6.15;;
62554;SDS011;48610;52.144;8.624;2023-12-20T07:59:32;20.10;;;4.57;;
62554;SDS011;48610;52.144;8.624;2023-12-20T08:02:32;28.35;;;5.72;;
62554;SDS011;48610;52.144;8.624;2023-12-20T08:05:33;13.52;;;5.00;;
62554;SDS011;48610;52.144;8.624;2023-12-20T08:08:33;30.35;;;6.32;;
62554;SDS011;48610;52.144;8.624;2023-12-20T08:11:34;25.45;;;5.68;;
62554;SDS011;48610;52.144;8.624;2023-12-20T08:14:35;27.70;;;5.50;;
62554;SDS011;48610;52.144;8.624;2023-12-20T08:17:35;21.92;;;5.10;;
62554;SDS011;48610;52.144;8.624;2023-12-20T08:20:36;30.05;;;5.45;;
62554;SDS011;48610;52.144;8.624;2023-12-20T08:23:36;19.00;;;3.78;;
62554;SDS011;48610;52.144;8.624;2023-12-20T08:26:37;20.98;;;4.20;;
62554;SDS011;48610;52.144;8.624;2023-12-20T08:29:37;16.00;;;5.05;;
62554;SDS011;48610;52.144;8.624;2023-12-20T08:32:38;28.45;;;4.25;;
62554;SDS011;48610;52.144;8.624;2023-12-20T08:35:39;24.80;;;5.00;;
62554;SDS011;48610;52.144;8.624;2023-12-20T08:38:40;35.78;;;4.70;;
62554;SDS011;48610;52.144;8.624;2023-12-20T08:41:40;23.42;;;4.72;;
62554;SDS011;48610;52.144;8.624;2023-12-20T08:44:41;16.95;;;4.70;;
62554;SDS011;48610;52.144;8.624;2023-12-20T08:47:42;16.83;;;4.35;;
62554;SDS011;48610;52.144;8.624;2023-12-20T08:50:44;23.70;;;4.97;;
62554;SDS011;48610;52.144;8.624;2023-12-20T08:53:45;19.17;;;5.45;;
62554;SDS011;48610;52.144;8.624;2023-12-20T08:56:47;15.48;;;4.45;;
62554;SDS011;48610;52.144;8.624;2023-12-20T08:59:48;29.58;;;6.10;;
62554;SDS011;48610;52.144;8.624;2023-12-20T09:02:49;16.38;;;5.05;;
62554;SDS011;48610;52.144;8.624;2023-12-20T09:05:50;37.67;;;9.48;;
62554;SDS011;48610;52.144;8.624;2023-12-20T09:08:51;28.83;;;5.25;;
62554;SDS011;48610;52.144;8.624;2023-12-20T09:11:52;16.38;;;5.05;;
62554;SDS011;48610;52.144;8.624;2023-12-20T09:14:53;30.02;;;5.05;;
62554;SDS011;48610;52.144;8.624;2023-12-20T09:17:54;27.48;;;6.20;;
62554;SDS011;48610;52.144;8.624;2023-12-20T09:20:54;24.98;;;5.85;;
62554;SDS011;48610;52.144;8.624;2023-12-20T09:23:55;22.00;;;6.13;;
62554;SDS011;48610;52.144;8.624;2023-12-20T09:26:56;21.20;;;5.70;;
62554;SDS011;48610;52.144;8.624;2023-12-20T09:29:56;13.77;;;5.03;;
62554;SDS011;48610;52.144;8.624;2023-12-20T09:32:57;22.60;;;6.00;;
62554;SDS011;48610;52.144;8.624;2023-12-20T09:35:58;39.83;;;6.25;;
62554;SDS011;48610;52.144;8.624;2023-12-20T09:38:59;22.38;;;5.93;;
62554;SDS011;48610;52.144;8.624;2023-12-20T09:42:03;26.38;;;5.45;;
62554;SDS011;48610;52.144;8.624;2023-12-20T09:45:05;29.50;;;5.72;;
62554;SDS011;48610;52.144;8.624;2023-12-20T09:48:12;23.48;;;6.05;;
62554;SDS011;48610;52.144;8.624;2023-12-20T09:51:15;9.50;;;4.85;;
62554;SDS011;48610;52.144;8.624;2023-12-20T09:54:18;16.98;;;5.95;;
62554;SDS011;48610;52.144;8.624;2023-12-20T09:57:20;22.57;;;6.63;;
62554;SDS011;48610;52.144;8.624;2023-12-20T10:00:21;13.45;;;5.00;;
62554;SDS011;48610;52.144;8.624;2023-12-20T10:03:23;15.95;;;5.28;;
62554;SDS011;48610;52.144;8.624;2023-12-20T10:06:26;15.40;;;4.95;;
62554;SDS011;48610;52.144;8.624;2023-12-20T10:09:27;19.85;;;5.25;;
62554;SDS011;48610;52.144;8.624;2023-12-20T10:12:30;19.75;;;5.78;;
62554;SDS011;48610;52.144;8.624;2023-12-20T10:15:32;27.02;;;6.07;;
62554;SDS011;48610;52.144;8.624;2023-12-20T10:18:36;17.70;;;5.60;;
62554;SDS011;48610;52.144;8.624;2023-12-20T10:21:37;25.77;;;5.85;;
62554;SDS011;48610;52.144;8.624;2023-12-20T10:24:37;17.23;;;5.07;;
62554;SDS011;48610;52.144;8.624;2023-12-20T10:27:39;19.02;;;5.68;;
62554;SDS011;48610;52.144;8.624;2023-12-20T10:30:40;18.50;;;5.78;;
62554;SDS011;48610;52.144;8.624;2023-12-20T10:33:41;23.10;;;5.88;;
62554;SDS011;48610;52.144;8.624;2023-12-20T10:36:42;29.08;;;5.18;;
62554;SDS011;48610;52.144;8.624;2023-12-20T10:39:42;23.35;;;6.22;;
62554;SDS011;48610;52.144;8.624;2023-12-20T10:42:43;23.70;;;5.68;;
62554;SDS011;48610;52.144;8.624;2023-12-20T10:45:44;54.30;;;11.77;;
62554;SDS011;48610;52.144;8.624;2023-12-20T10:48:45;30.13;;;6.15;;
62554;SDS011;48610;52.144;8.624;2023-12-20T10:51:46;27.70;;;8.23;;
62554;SDS011;48610;52.144;8.624;2023-12-20T10:54:48;25.40;;;6.68;;
62554;SDS011;48610;52.144;8.624;2023-12-20T10:57:49;25.33;;;5.63;;
62554;SDS011;48610;52.144;8.624;2023-12-20T11:00:51;21.60;;;5.68;;
62554;SDS011;48610;52.144;8.624;2023-12-20T11:03:59;19.27;;;4.45;;
62554;SDS011;48610;52.144;8.624;2023-12-20T11:07:05;17.05;;;4.43;;
62554;SDS011;48610;52.144;8.624;2023-12-20T11:10:19;21.27;;;4.55;;
62554;SDS011;48610;52.144;8.624;2023-12-20T11:13:55;14.90;;;3.75;;
62554;SDS011;48610;52.144;8.624;2023-12-20T11:17:27;10.68;;;3.78;;
62554;SDS011;48610;52.144;8.624;2023-12-20T11:20:22;11.65;;;3.67;;
62554;SDS011;48610;52.144;8.624;2023-12-20T11:23:43;13.27;;;3.72;;
62554;SDS011;48610;52.144;8.624;2023-12-20T11:26:47;9.95;;;3.90;;
62554;SDS011;48610;52.144;8.624;2023-12-20T11:29:55;17.23;;;3.45;;
62554;SDS011;48610;52.144;8.624;2023-12-20T11:35:57;13.07;;;4.10;;
62554;SDS011;48610;52.144;8.624;2023-12-20T11:38:59;9.38;;;3.40;;
62554;SDS011;48610;52.144;8.624;2023-12-20T11:42:06;17.02;;;3.70;;
62554;SDS011;48610;52.144;8.624;2023-12-20T11:45:11;10.98;;;3.40;;
62554;SDS011;48610;52.144;8.624;2023-12-20T11:48:15;14.25;;;3.85;;
62554;SDS011;48610;52.144;8.624;2023-12-20T11:51:16;18.23;;;3.38;;
62554;SDS011;48610;52.144;8.624;2023-12-20T11:54:16;13.32;;;4.25;;
62554;SDS011;48610;52.144;8.624;2023-12-20T11:57:17;8.43;;;3.70;;
62554;SDS011;48610;52.144;8.624;2023-12-20T12:00:17;12.00;;;3.00;;
62554;SDS011;48610;52.144;8.624;2023-12-20T12:03:18;18.63;;;3.80;;
62554;SDS011;48610;52.144;8.624;2023-12-20T12:06:19;16.20;;;3.85;;
62554;SDS011;48610;52.144;8.624;2023-12-20T12:09:20;8.82;;;2.65;;
62554;SDS011;48610;52.144;8.624;2023-12-20T12:12:20;21.15;;;3.28;;
62554;SDS011;48610;52.144;8.624;2023-12-20T12:15:21;31.17;;;6.63;;
62554;SDS011;48610;52.144;8.624;2023-12-20T12:18:22;18.83;;;4.55;;
62554;SDS011;48610;52.144;8.624;2023-12-20T12:21:23;24.27;;;5.45;;
62554;SDS011;48610;52.144;8.624;2023-12-20T12:24:24;20.48;;;7.53;;
62554;SDS011;48610;52.144;8.624;2023-12-20T12:27:24;21.73;;;4.35;;
62554;SDS011;48610;52.144;8.624;2023-12-20T12:30:25;14.63;;;5.10;;
62554;SDS011;48610;52.144;8.624;2023-12-20T12:33:26;11.18;;;4.00;;
62554;SDS011;48610;52.144;8.624;2023-12-20T12:36:27;7.65;;;3.15;;
62554;SDS011;48610;52.144;8.624;2023-12-20T12:39:29;14.07;;;3.88;;
62554;SDS011;48610;52.144;8.624;2023-12-20T12:42:30;11.70;;;3.78;;
62554;SDS011;48610;52.144;8.624;2023-12-20T12:45:30;15.98;;;3.25;;
62554;SDS011;48610;52.144;8.624;2023-12-20T12:48:31;10.32;;;1.95;;
62554;SDS011;48610;52.144;8.624;2023-12-20T12:51:32;12.00;;;3.10;;
62554;SDS011;48610;52.144;8.624;2023-12-20T12:54:33;15.70;;;2.65;;
62554;SDS011;48610;52.144;8.624;2023-12-20T12:57:33;14.23;;;3.90;;
62554;SDS011;48610;52.144;8.624;2023-12-20T13:00:34;10.88;;;2.90;;
62554;SDS011;48610;52.144;8.624;2023-12-20T13:03:35;16.30;;;4.22;;
62554;SDS011;48610;52.144;8.624;2023-12-20T13:06:36;4.95;;;2.25;;
62554;SDS011;48610;52.144;8.624;2023-12-20T13:09:38;6.32;;;2.13;;
62554;SDS011;48610;52.144;8.624;2023-12-20T13:12:39;14.23;;;2.70;;
62554;SDS011;48610;52.144;8.624;2023-12-20T13:15:40;12.05;;;3.10;;
62554;SDS011;48610;52.144;8.624;2023-12-20T13:18:40;12.35;;;3.42;;
62554;SDS011;48610;52.144;8.624;2023-12-20T13:21:42;13.50;;;4.18;;
62554;SDS011;48610;52.144;8.624;2023-12-20T13:24:43;7.30;;;3.42;;
62554;SDS011;48610;52.144;8.624;2023-12-20T13:27:44;9.23;;;3.00;;
62554;SDS011;48610;52.144;8.624;2023-12-20T13:30:45;5.78;;;2.40;;
62554;SDS011;48610;52.144;8.624;2023-12-20T13:33:46;14.10;;;3.95;;
62554;SDS011;48610;52.144;8.624;2023-12-20T13:36:46;4.82;;;2.33;;
62554;SDS011;48610;52.144;8.624;2023-12-20T13:39:47;7.72;;;2.33;;
62554;SDS011;48610;52.144;8.624;2023-12-20T13:42:48;9.13;;;2.60;;
62554;SDS011;48610;52.144;8.624;2023-12-20T13:45:49;11.27;;;3.05;;
62554;SDS011;48610;52.144;8.624;2023-12-20T13:48:49;10.65;;;2.92;;
62554;SDS011;48610;52.144;8.624;2023-12-20T13:51:50;8.05;;;2.10;;
62554;SDS011;48610;52.144;8.624;2023-12-20T13:54:50;6.72;;;2.10;;
62554;SDS011;48610;52.144;8.624;2023-12-20T13:57:51;5.03;;;2.13;;
62554;SDS011;48610;52.144;8.624;2023-12-20T14:00:51;9.15;;;3.33;;
62554;SDS011;48610;52.144;8.624;2023-12-20T14:03:53;8.10;;;3.03;;
62554;SDS011;48610;52.144;8.624;2023-12-20T14:06:53;11.60;;;2.60;;
62554;SDS011;48610;52.144;8.624;2023-12-20T14:09:54;14.07;;;3.38;;
62554;SDS011;48610;52.144;8.624;2023-12-20T14:12:55;7.93;;;2.25;;
62554;SDS011;48610;52.144;8.624;2023-12-20T14:15:56;6.90;;;1.83;;
62554;SDS011;48610;52.144;8.624;2023-12-20T14:18:57;4.13;;;1.77;;
62554;SDS011;48610;52.144;8.624;2023-12-20T14:21:58;3.97;;;2.40;;
62554;SDS011;48610;52.144;8.624;2023-12-20T14:25:02;4.28;;;1.95;;
62554;SDS011;48610;52.144;8.624;2023-12-20T14:28:04;6.90;;;2.92;;
62554;SDS011;48610;52.144;8.624;2023-12-20T14:31:05;8.18;;;2.28;;
62554;SDS011;48610;52.144;8.624;2023-12-20T14:34:05;8.00;;;2.20;;
62554;SDS011;48610;52.144;8.624;2023-12-20T14:37:06;8.23;;;2.30;;
62554;SDS011;48610;52.144;8.624;2023-12-20T14:40:07;8.80;;;1.95;;
62554;SDS011;48610;52.144;8.624;2023-12-20T14:43:15;8.85;;;2.90;;
62554;SDS011;48610;52.144;8.624;2023-12-20T14:46:16;13.35;;;3.08;;
62554;SDS011;48610;52.144;8.624;2023-12-20T14:49:17;7.25;;;2.35;;
62554;SDS011;48610;52.144;8.624;2023-12-20T14:52:18;10.35;;;2.95;;
62554;SDS011;48610;52.144;8.624;2023-12-20T14:55:19;11.02;;;3.40;;
62554;SDS011;48610;52.144;8.624;2023-12-20T14:58:19;11.10;;;2.60;;
62554;SDS011;48610;52.144;8.624;2023-12-20T15:01:20;11.05;;;2.80;;
62554;SDS011;48610;52.144;8.624;2023-12-20T15:04:21;4.85;;;2.22;;
62554;SDS011;48610;52.144;8.624;2023-12-20T15:07:28;11.55;;;2.40;;
62554;SDS011;48610;52.144;8.624;2023-12-20T15:10:29;11.73;;;3.15;;
62554;SDS011;48610;52.144;8.624;2023-12-20T15:13:30;9.63;;;2.78;;
62554;SDS011;48610;52.144;8.624;2023-12-20T15:16:31;7.78;;;2.42;;
62554;SDS011;48610;52.144;8.624;2023-12-20T15:19:32;23.77;;;3.88;;
62554;SDS011;48610;52.144;8.624;2023-12-20T15:22:33;5.88;;;3.13;;
62554;SDS011;48610;52.144;8.624;2023-12-20T15:25:35;14.50;;;2.65;;
62554;SDS011;48610;52.144;8.624;2023-12-20T15:28:36;6.20;;;2.15;;
62554;SDS011;48610;52.144;8.624;2023-12-20T15:31:37;9.77;;;2.70;;
62554;SDS011;48610;52.144;8.624;2023-12-20T15:34:42;8.00;;;2.25;;
62554;SDS011;48610;52.144;8.624;2023-12-20T15:37:42;9.95;;;2.28;;
62554;SDS011;48610;52.144;8.624;2023-12-20T15:40:43;6.45;;;2.72;;
62554;SDS011;48610;52.144;8.624;2023-12-20T15:43:44;16.55;;;3.20;;
62554;SDS011;48610;52.144;8.624;2023-12-20T15:46:45;11.80;;;3.28;;
62554;SDS011;48610;52.144;8.624;2023-12-20T15:49:45;7.35;;;2.47;;
62554;SDS011;48610;52.144;8.624;2023-12-20T15:52:47;4.93;;;3.10;;
62554;SDS011;48610;52.144;8.624;2023-12-20T15:55:47;11.32;;;3.00;;
62554;SDS011;48610;52.144;8.624;2023-12-20T15:58:48;8.57;;;2.70;;
62554;SDS011;48610;52.144;8.624;2023-12-20T16:01:49;8.98;;;3.13;;
62554;SDS011;48610;52.144;8.624;2023-12-20T16:04:49;13.18;;;3.67;;
62554;SDS011;48610;52.144;8.624;2023-12-20T16:07:50;15.05;;;3.78;;
62554;SDS011;48610;52.144;8.624;2023-12-20T16:10:51;10.15;;;2.83;;
62554;SDS011;48610;52.144;8.624;2023-12-20T16:13:51;8.23;;;2.95;;
62554;SDS011;48610;52.144;8.624;2023-12-20T16:16:52;8.25;;;3.17;;
62554;SDS011;48610;52.144;8.624;2023-12-20T16:19:53;6.43;;;3.20;;
62554;SDS011;48610;52.144;8.624;2023-12-20T16:22:54;8.05;;;3.58;;
62554;SDS011;48610;52.144;8.624;2023-12-20T16:25:54;7.45;;;2.97;;
62554;SDS011;48610;52.144;8.624;2023-12-20T16:28:55;3.40;;;2.40;;
62554;SDS011;48610;52.144;8.624;2023-12-20T16:31:56;3.45;;;2.47;;
62554;SDS011;48610;52.144;8.624;2023-12-20T16:34:57;8.57;;;3.28;;
62554;SDS011;48610;52.144;8.624;2023-12-20T16:37:58;8.35;;;2.85;;
62554;SDS011;48610;52.144;8.624;2023-12-20T16:40:59;5.25;;;3.05;;
62554;SDS011;48610;52.144;8.624;2023-12-20T16:44:00;13.23;;;3.50;;
62554;SDS011;48610;52.144;8.624;2023-12-20T16:47:03;12.23;;;3.20;;
62554;SDS011;48610;52.144;8.624;2023-12-20T16:50:04;10.68;;;4.43;;
62554;SDS011;48610;52.144;8.624;2023-12-20T16:53:06;44.67;;;13.70;;
62554;SDS011;48610;52.144;8.624;2023-12-20T16:56:07;30.60;;;8.48;;
62554;SDS011;48610;52.144;8.624;2023-12-20T16:59:07;12.90;;;5.30;;
62554;SDS011;48610;52.144;8.624;2023-12-20T17:02:08;19.15;;;5.32;;
62554;SDS011;48610;52.144;8.624;2023-12-20T17:05:09;14.85;;;6.10;;
62554;SDS011;48610;52.144;8.624;2023-12-20T17:08:09;22.90;;;7.90;;
62554;SDS011;48610;52.144;8.624;2023-12-20T17:11:10;23.95;;;7.75;;
62554;SDS011;48610;52.144;8.624;2023-12-20T17:14:11;11.60;;;5.35;;
62554;SDS011;48610;52.144;8.624;2023-12-20T17:17:13;20.52;;;7.38;;
62554;SDS011;48610;52.144;8.624;2023-12-20T17:20:13;16.88;;;6.68;;
62554;SDS011;48610;52.144;8.624;2023-12-20T17:23:14;20.20;;;5.28;;
62554;SDS011;48610;52.144;8.624;2023-12-20T17:26:14;21.25;;;6.30;;
62554;SDS011;48610;52.144;8.624;2023-12-20T17:29:15;20.13;;;5.57;;
62554;SDS011;48610;52.144;8.624;2023-12-20T17:32:16;18.00;;;6.50;;
62554;SDS011;48610;52.144;8.624;2023-12-20T17:35:16;13.32;;;5.25;;
62554;SDS011;48610;52.144;8.624;2023-12-20T17:38:18;9.23;;;4.93;;
62554;SDS011;48610;52.144;8.624;2023-12-20T17:41:18;19.13;;;6.35;;
62554;SDS011;48610;52.144;8.624;2023-12-20T17:44:19;27.42;;;6.75;;
62554;SDS011;48610;52.144;8.624;2023-12-20T17:47:20;17.67;;;5.55;;
62554;SDS011;48610;52.144;8.624;2023-12-20T17:50:21;16.52;;;5.70;;
62554;SDS011;48610;52.144;8.624;2023-12-20T17:53:21;30.00;;;6.63;;
62554;SDS011;48610;52.144;8.624;2023-12-20T17:56:22;23.92;;;7.45;;
62554;SDS011;48610;52.144;8.624;2023-12-20T17:59:23;16.55;;;6.60;;